createdAt,value
2018-12-17T00:01:11.742Z,94819.53
2018-12-17T00:03:40.308Z,94813.75
2018-12-17T00:06:09.039Z,94802.59
2018-12-17T00:08:37.754Z,94809.91
2018-12-17T00:11:06.597Z,94804.69
2018-12-17T00:13:35.143Z,94812.78
2018-12-17T00:16:03.831Z,94814.85
2018-12-17T00:18:32.449Z,94822.33
2018-12-17T00:21:01.129Z,94803.70
2018-12-17T00:23:29.712Z,94816.55
2018-12-17T00:25:58.436Z,94819.90
2018-12-17T00:28:27.164Z,94815.69
2018-12-17T00:30:55.729Z,94820.59
2018-12-17T00:33:24.378Z,94815.69
2018-12-17T00:35:52.968Z,94824.03
2018-12-17T00:38:21.571Z,94828.59
2018-12-17T00:40:50.236Z,94831.66
2018-12-17T00:43:18.807Z,94833.91
2018-12-17T00:45:47.389Z,94836.30
2018-12-17T00:48:15.978Z,94834.42
2018-12-17T00:50:44.541Z,94832.98
2018-12-17T00:53:13.144Z,94832.00
2018-12-17T00:55:41.748Z,94838.81
2018-12-17T01:00:45.153Z,94836.09
2018-12-17T01:04:42.866Z,94836.30
2018-12-17T01:07:11.458Z,94836.91
2018-12-17T01:09:40.326Z,94833.87
2018-12-17T01:12:08.977Z,94822.81
2018-12-17T01:14:38.075Z,94826.43
2018-12-17T01:17:06.667Z,94818.63
2018-12-17T01:19:35.311Z,94816.98
2018-12-17T01:25:03.093Z,94820.08
2018-12-17T01:27:32.325Z,94816.64
2018-12-17T01:30:00.898Z,94815.28
2018-12-17T01:32:29.451Z,94805.78
2018-12-17T01:34:58.606Z,94797.80
2018-12-17T01:37:27.250Z,94788.95
2018-12-17T01:39:55.885Z,94784.80
2018-12-17T01:42:24.490Z,94782.17
2018-12-17T01:44:53.090Z,94782.22
2018-12-17T01:47:21.688Z,94781.83
2018-12-17T01:49:50.254Z,94778.45
2018-12-17T01:52:18.916Z,94781.50
2018-12-17T01:54:47.555Z,94778.78
2018-12-17T01:57:16.099Z,94769.88
2018-12-17T01:59:44.690Z,94770.91
2018-12-17T02:02:13.274Z,94771.24
2018-12-17T02:04:42.422Z,94776.42
2018-12-17T02:07:11.483Z,94772.75
2018-12-17T02:09:40.075Z,94769.50
2018-12-17T02:12:08.720Z,94768.42
2018-12-17T02:14:37.302Z,94772.37
2018-12-17T02:17:05.938Z,94774.06
2018-12-17T02:19:34.482Z,94768.18
2018-12-17T02:22:03.093Z,94765.97
2018-12-17T02:24:31.664Z,94769.08
2018-12-17T02:27:00.248Z,94767.61
2018-12-17T02:29:28.845Z,94758.82
2018-12-17T02:31:57.522Z,94759.81
2018-12-17T02:34:26.087Z,94773.06
2018-12-17T02:36:54.672Z,94766.25
2018-12-17T02:39:23.239Z,94774.05
2018-12-17T02:41:51.893Z,94766.86
2018-12-17T02:44:20.704Z,94759.38
2018-12-17T02:46:49.287Z,94768.27
2018-12-17T02:49:18.131Z,94766.77
2018-12-17T02:51:46.723Z,94758.72
2018-12-17T02:54:15.312Z,94765.12
2018-12-17T02:56:43.878Z,94774.86
2018-12-17T02:59:12.455Z,94775.10
2018-12-17T03:01:41.056Z,94771.29
2018-12-17T03:05:12.748Z,94773.02
2018-12-17T03:07:41.286Z,94766.91
2018-12-17T03:10:10.350Z,94773.27
2018-12-17T03:12:38.911Z,94773.27
2018-12-17T03:15:08.067Z,94765.74
2018-12-17T03:17:36.697Z,94765.88
2018-12-17T03:20:05.755Z,94762.96
2018-12-17T03:22:34.423Z,94761.55
2018-12-17T03:25:03.092Z,94760.47
2018-12-17T03:27:31.768Z,94761.30
2018-12-17T03:30:00.375Z,94769.30
2018-12-17T03:32:28.994Z,94764.78
2018-12-17T03:34:57.600Z,94769.97
2018-12-17T03:37:26.133Z,94773.41
2018-12-17T03:39:54.718Z,94768.08
2018-12-17T03:42:23.274Z,94777.36
2018-12-17T03:44:51.876Z,94774.47
2018-12-17T03:47:20.512Z,94775.74
2018-12-17T03:49:49.055Z,94770.91
2018-12-17T03:52:17.687Z,94776.61
2018-12-17T03:54:46.845Z,94781.93
2018-12-17T03:57:15.444Z,94777.55
2018-12-17T03:59:44.077Z,94772.09
2018-12-17T04:02:12.684Z,94775.81
2018-12-17T04:04:41.391Z,94780.81
2018-12-17T04:07:09.915Z,94781.55
2018-12-17T04:09:38.491Z,94781.31
2018-12-17T04:12:07.049Z,94782.86
2018-12-17T04:14:35.645Z,94784.66
2018-12-17T04:17:04.290Z,94787.73
2018-12-17T04:19:32.889Z,94791.53
2018-12-17T04:22:01.513Z,94797.65
2018-12-17T04:24:30.168Z,94792.61
2018-12-17T04:26:58.760Z,94787.98
2018-12-17T04:29:27.379Z,94795.76
2018-12-17T04:31:55.950Z,94789.95
2018-12-17T04:34:24.525Z,94800.69
2018-12-17T04:36:53.094Z,94794.53
2018-12-17T04:39:21.710Z,94807.24
2018-12-17T04:41:50.419Z,94809.41
2018-12-17T04:44:19.649Z,94805.69
2018-12-17T04:46:48.222Z,94805.55
2018-12-17T04:49:16.816Z,94809.83
2018-12-17T04:51:45.437Z,94805.55
2018-12-17T04:54:14.032Z,94807.05
2018-12-17T04:56:42.582Z,94809.70
2018-12-17T04:59:14.671Z,94808.84
2018-12-17T05:01:41.869Z,94807.38
2018-12-17T05:04:11.415Z,94803.99
2018-12-17T05:06:39.996Z,94802.98
2018-12-17T05:09:09.146Z,94808.30
2018-12-17T05:11:37.770Z,94804.60
2018-12-17T05:14:06.417Z,94805.11
2018-12-17T05:16:35.097Z,94803.23
2018-12-17T05:19:03.719Z,94807.28
2018-12-17T05:21:32.319Z,94810.58
2018-12-17T05:24:00.874Z,94812.83
2018-12-17T05:26:29.446Z,94808.64
2018-12-17T05:28:58.050Z,94802.86
2018-12-17T05:31:26.618Z,94811.75
2018-12-17T05:33:55.230Z,94814.81
2018-12-17T05:36:23.804Z,94813.11
2018-12-17T05:38:52.363Z,94809.83
2018-12-17T05:41:20.918Z,94811.70
2018-12-17T05:43:49.536Z,94808.18
2018-12-17T05:46:18.136Z,94807.52
2018-12-17T05:48:46.739Z,94804.31
2018-12-17T05:51:15.339Z,94796.41
2018-12-17T05:53:44.116Z,94795.40
2018-12-17T05:56:12.699Z,94802.19
2018-12-17T05:58:41.297Z,94805.02
2018-12-17T06:01:09.912Z,94801.29
2018-12-17T06:03:38.521Z,94809.66
2018-12-17T06:06:07.146Z,94805.95
2018-12-17T06:08:36.818Z,94804.66
2018-12-17T06:11:05.425Z,94815.44
2018-12-17T06:13:34.053Z,94814.61
2018-12-17T06:16:02.659Z,94811.83
2018-12-17T06:18:31.242Z,94814.65
2018-12-17T06:20:59.950Z,94807.59
2018-12-17T06:23:28.491Z,94803.92
2018-12-17T06:25:57.149Z,94807.41
2018-12-17T06:28:25.780Z,94808.00
2018-12-17T06:30:54.436Z,94806.39
2018-12-17T06:33:24.536Z,94810.40
2018-12-17T06:35:53.307Z,94818.03
2018-12-17T06:38:21.867Z,94816.34
2018-12-17T06:40:50.573Z,94809.31
2018-12-17T06:43:19.190Z,94802.39
2018-12-17T06:45:47.794Z,94804.78
2018-12-17T06:48:17.293Z,94811.42
2018-12-17T06:50:46.233Z,94806.55
2018-12-17T06:53:15.552Z,94809.93
2018-12-17T06:55:44.277Z,94812.56
2018-12-17T06:58:13.345Z,94811.39
2018-12-17T07:00:42.104Z,94809.74
2018-12-17T07:03:10.708Z,94816.55
2018-12-17T07:05:39.352Z,94816.08
2018-12-17T07:08:07.958Z,94816.95
2018-12-17T07:10:36.561Z,94823.36
2018-12-17T07:13:05.156Z,94819.92
2018-12-17T07:15:34.017Z,94824.42
2018-12-17T07:18:02.604Z,94821.82
2018-12-17T07:20:31.151Z,94815.55
2018-12-17T07:22:59.748Z,94819.89
2018-12-17T07:25:28.368Z,94817.59
2018-12-17T07:27:57.028Z,94826.13
2018-12-17T07:30:31.927Z,94818.78
2018-12-17T07:33:00.515Z,94821.91
2018-12-17T07:35:29.163Z,94822.34
2018-12-17T07:37:57.709Z,94824.98
2018-12-17T07:40:26.465Z,94826.78
2018-12-17T07:42:55.149Z,94822.53
2018-12-17T07:45:24.087Z,94830.07
2018-12-17T07:47:52.696Z,94824.58
2018-12-17T07:50:21.354Z,94827.58
2018-12-17T07:52:49.929Z,94825.68
2018-12-17T07:55:18.549Z,94817.61
2018-12-17T07:57:47.163Z,94819.89
2018-12-17T08:00:15.872Z,94814.34
2018-12-17T08:02:44.461Z,94808.98
2018-12-17T08:05:13.107Z,94819.05
2018-12-17T08:07:41.759Z,94820.77
2018-12-17T08:10:10.351Z,94827.60
2018-12-17T08:12:38.994Z,94827.09
2018-12-17T08:15:07.839Z,94821.81
2018-12-17T08:17:36.517Z,94817.78
2018-12-17T08:20:05.650Z,94824.67
2018-12-17T08:22:34.624Z,94830.48
2018-12-17T08:25:03.307Z,94815.58
2018-12-17T08:27:31.922Z,94815.38
2018-12-17T08:30:03.937Z,94822.46
2018-12-17T08:32:31.087Z,94820.64
2018-12-17T08:34:59.942Z,94812.14
2018-12-17T08:37:28.572Z,94816.49
2018-12-17T08:39:57.237Z,94815.86
2018-12-17T08:42:25.899Z,94799.56
2018-12-17T08:44:54.588Z,94805.19
2018-12-17T08:47:23.234Z,94800.88
2018-12-17T08:49:51.867Z,94806.45
2018-12-17T08:52:20.530Z,94802.58
2018-12-17T08:54:49.834Z,94799.95
2018-12-17T08:57:18.507Z,94799.34
2018-12-17T08:59:47.161Z,94800.70
2018-12-17T09:02:15.814Z,94792.45
2018-12-17T09:04:44.433Z,94789.48
2018-12-17T09:07:13.084Z,94788.66
2018-12-17T09:09:41.721Z,94787.56
2018-12-17T09:12:10.656Z,94783.94
2018-12-17T09:14:39.342Z,94788.66
2018-12-17T09:17:07.994Z,94787.09
2018-12-17T09:19:36.638Z,94785.88
2018-12-17T09:22:05.327Z,94777.58
2018-12-17T09:24:34.054Z,94774.58
2018-12-17T09:27:02.678Z,94775.17
2018-12-17T09:29:31.362Z,94778.61
2018-12-17T09:32:00.018Z,94783.03
2018-12-17T09:34:28.659Z,94774.69
2018-12-17T09:36:57.281Z,94774.25
2018-12-17T09:39:25.867Z,94776.58
2018-12-17T09:41:54.450Z,94777.33
2018-12-17T09:44:23.023Z,94777.80
2018-12-17T09:46:51.706Z,94779.50
2018-12-17T09:49:20.587Z,94767.02
2018-12-17T09:51:49.215Z,94761.23
2018-12-17T09:54:17.907Z,94764.49
2018-12-17T09:56:46.534Z,94758.20
2018-12-17T09:59:15.163Z,94758.62
2018-12-17T10:01:43.801Z,94756.55
2018-12-17T10:04:12.404Z,94748.36
2018-12-17T10:06:41.002Z,94743.40
2018-12-17T10:09:09.681Z,94736.59
2018-12-17T10:11:38.309Z,94732.01
2018-12-17T10:14:07.005Z,94731.58
2018-12-17T10:16:35.620Z,94724.59
2018-12-17T10:19:04.238Z,94725.06
2018-12-17T10:21:32.854Z,94726.95
2018-12-17T10:24:01.526Z,94722.08
2018-12-17T10:26:30.291Z,94725.00
2018-12-17T10:28:58.931Z,94715.23
2018-12-17T10:31:27.589Z,94714.47
2018-12-17T10:33:56.227Z,94711.16
2018-12-17T10:36:24.887Z,94713.28
2018-12-17T10:38:53.510Z,94708.88
2018-12-17T10:41:22.158Z,94707.20
2018-12-17T10:43:50.839Z,94704.00
2018-12-17T10:46:19.461Z,94704.83
2018-12-17T10:48:48.100Z,94698.91
2018-12-17T10:51:16.811Z,94697.86
2018-12-17T10:53:45.496Z,94694.83
2018-12-17T10:56:14.183Z,94697.07
2018-12-17T10:58:42.797Z,94697.08
2018-12-17T11:01:16.644Z,94699.06
2018-12-17T11:03:49.353Z,94695.69
2018-12-17T11:06:21.966Z,94694.52
2018-12-17T11:08:51.141Z,94691.38
2018-12-17T11:11:19.702Z,94693.26
2018-12-17T11:13:48.304Z,94696.27
2018-12-17T11:16:16.960Z,94692.08
2018-12-17T11:18:45.640Z,94684.50
2018-12-17T11:21:14.308Z,94682.76
2018-12-17T11:23:43.533Z,94683.55
2018-12-17T11:26:12.396Z,94676.93
2018-12-17T11:28:41.232Z,94679.64
2018-12-17T11:31:09.837Z,94679.11
2018-12-17T11:33:38.451Z,94671.78
2018-12-17T11:36:07.072Z,94670.97
2018-12-17T11:38:35.668Z,94670.05
2018-12-17T11:41:04.327Z,94673.86
2018-12-17T11:43:32.985Z,94673.89
2018-12-17T11:46:03.667Z,94672.84
2018-12-17T11:48:32.531Z,94670.02
2018-12-17T11:51:01.830Z,94667.47
2018-12-17T11:53:30.775Z,94671.88
2018-12-17T11:55:59.367Z,94667.60
2018-12-17T11:58:28.090Z,94664.83
2018-12-17T12:01:01.448Z,94673.56
2018-12-17T12:03:31.045Z,94665.53
2018-12-17T12:05:59.755Z,94670.64
2018-12-17T12:08:28.380Z,94672.04
2018-12-17T12:10:57.081Z,94668.89
2018-12-17T12:13:25.917Z,94666.00
2018-12-17T12:15:54.562Z,94671.11
2018-12-17T12:18:23.221Z,94676.00
2018-12-17T12:20:51.946Z,94678.92
2018-12-17T12:23:20.590Z,94681.46
2018-12-17T12:25:49.223Z,94679.38
2018-12-17T12:28:19.514Z,94677.38
2018-12-17T12:30:48.853Z,94678.89
2018-12-17T12:33:17.680Z,94675.28
2018-12-17T12:35:46.825Z,94674.92
2018-12-17T12:38:15.638Z,94683.42
2018-12-17T12:40:44.825Z,94675.50
2018-12-17T12:43:13.863Z,94670.75
2018-12-17T12:45:42.525Z,94674.48
2018-12-17T12:48:11.129Z,94679.95
2018-12-17T12:50:39.785Z,94680.18
2018-12-17T12:53:08.456Z,94677.98
2018-12-17T12:55:37.638Z,94677.28
2018-12-17T12:58:06.971Z,94671.58
2018-12-17T13:00:35.819Z,94670.61
2018-12-17T13:03:04.913Z,94664.33
2018-12-17T13:05:34.475Z,94682.95
2018-12-17T13:08:03.163Z,94675.28
2018-12-17T13:10:32.114Z,94681.80
2018-12-17T13:13:01.604Z,94677.96
2018-12-17T13:15:30.829Z,94673.53
2018-12-17T13:17:59.414Z,94677.13
2018-12-17T13:20:28.065Z,94674.27
2018-12-17T13:22:56.681Z,94674.95
2018-12-17T13:25:38.435Z,94679.73
2018-12-17T13:28:07.087Z,94683.09
2018-12-17T13:30:35.785Z,94683.09
2018-12-17T13:33:04.555Z,94686.27
2018-12-17T13:35:33.200Z,94691.83
2018-12-17T13:38:02.125Z,94693.47
2018-12-17T13:40:30.765Z,94688.59
2018-12-17T13:42:59.477Z,94691.24
2018-12-17T13:45:28.084Z,94694.28
2018-12-17T13:47:56.823Z,94701.23
2018-12-17T13:50:30.805Z,94716.27
2018-12-17T13:53:04.576Z,94714.18
2018-12-17T13:55:33.286Z,94721.71
2018-12-17T13:58:02.032Z,94727.88
2018-12-17T14:00:30.751Z,94722.16
2018-12-17T14:02:59.373Z,94717.16
2018-12-17T14:05:28.583Z,94716.83
2018-12-17T14:07:57.203Z,94712.16
2018-12-17T14:10:30.814Z,94707.00
2018-12-17T14:12:59.888Z,94706.08
2018-12-17T14:15:32.627Z,94710.48
2018-12-17T14:18:03.281Z,94712.27
2018-12-17T14:20:38.218Z,94713.31
2018-12-17T14:23:06.881Z,94717.70
2018-12-17T14:25:35.623Z,94716.30
2018-12-17T14:28:04.218Z,94726.10
2018-12-17T14:30:32.784Z,94718.66
2018-12-17T14:33:07.869Z,94722.45
2018-12-17T14:35:42.780Z,94719.66
2018-12-17T14:38:12.661Z,94728.35
2018-12-17T14:40:42.632Z,94734.16
2018-12-17T14:43:13.244Z,94734.16
2018-12-17T14:45:46.484Z,94737.44
2018-12-17T14:48:15.928Z,94741.66
2018-12-17T14:50:45.937Z,94743.16
2018-12-17T14:53:15.464Z,94748.81
2018-12-17T14:55:45.260Z,94758.07
2018-12-17T14:58:14.152Z,94757.77
2018-12-17T15:00:44.163Z,94756.62
2018-12-17T15:03:12.783Z,94759.11
2018-12-17T15:05:41.508Z,94761.38
2018-12-17T15:08:10.231Z,94770.69
2018-12-17T15:10:38.846Z,94769.99
2018-12-17T15:13:07.545Z,94771.18
2018-12-17T15:15:36.307Z,94774.66
2018-12-17T15:18:04.935Z,94770.80
2018-12-17T15:20:33.618Z,94775.05
2018-12-17T15:23:03.517Z,94770.03
2018-12-17T15:25:32.197Z,94777.30
2018-12-17T15:28:01.002Z,94778.47
2018-12-17T15:30:29.782Z,94774.86
2018-12-17T15:32:58.448Z,94785.50
2018-12-17T15:35:27.054Z,94780.38
2018-12-17T15:37:55.700Z,94787.55
2018-12-17T15:40:24.335Z,94785.29
2018-12-17T15:42:52.949Z,94786.02
2018-12-17T15:45:21.698Z,94784.92
2018-12-17T15:47:50.402Z,94784.84
2018-12-17T15:50:19.177Z,94781.31
2018-12-17T15:52:47.841Z,94784.23
2018-12-17T15:55:16.585Z,94787.23
2018-12-17T15:57:46.669Z,94782.70
2018-12-17T16:00:15.369Z,94788.46
2018-12-17T16:02:43.979Z,94794.64
2018-12-17T16:05:12.687Z,94799.59
2018-12-17T16:07:41.344Z,94800.58
2018-12-17T16:10:10.112Z,94802.63
2018-12-17T16:12:38.721Z,94806.83
2018-12-17T16:15:07.625Z,94817.74
2018-12-17T16:17:36.296Z,94815.33
2018-12-17T16:20:05.069Z,94815.14
2018-12-17T16:22:33.704Z,94824.48
2018-12-17T16:25:02.291Z,94817.11
2018-12-17T16:27:30.913Z,94823.27
2018-12-17T16:29:59.754Z,94825.06
2018-12-17T16:32:28.384Z,94828.95
2018-12-17T16:34:57.015Z,94836.79
2018-12-17T16:37:25.846Z,94848.69
2018-12-17T16:39:54.471Z,94848.91
2018-12-17T16:42:23.127Z,94848.64
2018-12-17T16:44:51.794Z,94859.28
2018-12-17T16:47:20.436Z,94863.69
2018-12-17T16:49:49.085Z,94855.13
2018-12-17T16:52:17.802Z,94857.05
2018-12-17T16:54:46.414Z,94867.53
2018-12-17T16:57:15.076Z,94874.58
2018-12-17T16:59:43.657Z,94875.75
2018-12-17T17:02:12.430Z,94886.86
2018-12-17T17:04:41.595Z,94883.77
2018-12-17T17:07:10.352Z,94884.78
2018-12-17T17:09:39.011Z,94882.23
2018-12-17T17:12:07.743Z,94883.88
2018-12-17T17:14:36.341Z,94895.08
2018-12-17T17:17:19.354Z,94890.25
2018-12-17T17:19:51.011Z,94901.89
2018-12-17T17:22:18.719Z,94896.08
2018-12-17T17:24:47.409Z,94899.27
2018-12-17T17:27:15.951Z,94892.43
2018-12-17T17:29:44.626Z,94890.16
2018-12-17T17:32:13.272Z,94889.95
2018-12-17T17:34:42.156Z,94885.86
2018-12-17T17:37:10.789Z,94882.84
2018-12-17T17:39:39.476Z,94892.06
2018-12-17T17:42:08.094Z,94894.62
2018-12-17T17:44:36.731Z,94896.06
2018-12-17T17:47:05.997Z,94893.23
2018-12-17T17:49:34.635Z,94891.80
2018-12-17T17:52:03.342Z,94898.34
2018-12-17T17:54:32.025Z,94897.73
2018-12-17T17:57:00.657Z,94896.19
2018-12-17T17:59:29.349Z,94896.25
2018-12-17T18:01:57.960Z,94899.27
2018-12-17T18:04:26.626Z,94901.55
2018-12-17T18:06:55.216Z,94916.66
2018-12-17T18:09:23.912Z,94910.65
2018-12-17T18:11:53.132Z,94909.91
2018-12-17T18:14:22.728Z,94911.58
2018-12-17T18:16:51.403Z,94913.22
2018-12-17T18:19:20.211Z,94920.77
2018-12-17T18:21:48.807Z,94925.67
2018-12-17T18:24:17.757Z,94928.48
2018-12-17T18:26:46.338Z,94931.04
2018-12-17T18:29:14.986Z,94932.33
2018-12-17T18:31:43.721Z,94933.86
2018-12-17T18:34:12.317Z,94928.59
2018-12-17T18:36:40.997Z,94928.33
2018-12-17T18:39:09.823Z,94934.70
2018-12-17T18:41:38.550Z,94928.77
2018-12-17T18:44:07.348Z,94932.16
2018-12-17T18:46:36.028Z,94933.23
2018-12-17T18:49:05.128Z,94931.95
2018-12-17T18:51:33.705Z,94933.42
2018-12-17T18:54:02.305Z,94935.78
2018-12-17T18:56:31.273Z,94939.34
2018-12-17T18:58:59.880Z,94936.52
2018-12-17T19:01:29.433Z,94941.62
2018-12-17T19:03:58.079Z,94943.89
2018-12-17T19:06:26.772Z,94941.88
2018-12-17T19:08:55.459Z,94946.88
2018-12-17T19:11:25.749Z,94951.64
2018-12-17T19:13:54.419Z,94947.08
2018-12-17T19:16:23.115Z,94950.80
2018-12-17T19:18:51.962Z,94955.20
2018-12-17T19:21:20.806Z,94956.91
2018-12-17T19:23:49.808Z,94956.44
2018-12-17T19:26:18.399Z,94962.09
2018-12-17T19:28:47.071Z,94965.20
2018-12-17T19:31:18.378Z,94958.91
2018-12-17T19:34:20.880Z,94962.00
2018-12-17T19:36:49.940Z,94962.81
2018-12-17T19:39:18.743Z,94967.28
2018-12-17T19:41:47.654Z,94976.58
2018-12-17T19:44:16.288Z,94972.11
2018-12-17T19:46:44.907Z,94975.48
2018-12-17T19:49:16.070Z,94980.63
2018-12-17T19:51:44.737Z,94978.70
2018-12-17T19:54:13.416Z,94991.59
2018-12-17T19:56:42.041Z,94997.31
2018-12-17T19:59:11.646Z,94992.13
2018-12-17T20:01:40.363Z,94995.42
2018-12-17T20:04:09.054Z,94994.95
2018-12-17T20:06:37.719Z,94990.70
2018-12-17T20:09:07.079Z,95005.98
2018-12-17T20:11:35.851Z,94998.50
2018-12-17T20:14:04.542Z,95000.20
2018-12-17T20:16:33.231Z,94996.39
2018-12-17T20:19:03.030Z,95002.23
2018-12-17T20:21:32.667Z,95006.23
2018-12-17T20:24:01.332Z,95001.58
2018-12-17T20:26:29.967Z,95007.95
2018-12-17T20:28:58.589Z,95004.02
2018-12-17T20:31:27.280Z,95011.38
2018-12-17T20:33:55.877Z,95008.61
2018-12-17T20:36:24.635Z,95011.16
2018-12-17T20:38:53.819Z,95016.71
2018-12-17T20:41:22.620Z,95024.44
2018-12-17T20:43:51.405Z,95029.06
2018-12-17T20:46:20.083Z,95030.71
2018-12-17T20:48:48.755Z,95027.09
2018-12-17T20:51:17.397Z,95035.89
2018-12-17T20:53:46.014Z,95041.51
2018-12-17T20:56:14.618Z,95043.33
2018-12-17T20:58:43.301Z,95046.08
2018-12-17T21:01:12.029Z,95046.73
2018-12-17T21:03:40.655Z,95043.44
2018-12-17T21:06:10.125Z,95044.53
2018-12-17T21:08:38.781Z,95040.24
2018-12-17T21:11:07.433Z,95044.30
2018-12-17T21:13:36.149Z,95045.14
2018-12-17T21:16:05.219Z,95045.28
2018-12-17T21:18:33.913Z,95050.47
2018-12-17T21:21:02.594Z,95056.26
2018-12-17T21:23:31.525Z,95058.95
2018-12-17T21:26:00.843Z,95056.12
2018-12-17T21:28:29.811Z,95064.63
2018-12-17T21:30:58.559Z,95067.17
2018-12-17T21:33:27.335Z,95075.59
2018-12-17T21:35:55.942Z,95072.66
2018-12-17T21:38:24.611Z,95071.34
2018-12-17T21:40:53.245Z,95057.68
2018-12-17T21:43:21.850Z,95064.56
2018-12-17T21:45:50.550Z,95060.98
2018-12-17T21:48:19.274Z,95066.59
2018-12-17T21:50:47.889Z,95073.33
2018-12-17T21:53:16.458Z,95063.89
2018-12-17T21:55:45.057Z,95060.63
2018-12-17T21:58:13.921Z,95048.61
2018-12-17T22:00:43.029Z,95052.42
2018-12-17T22:03:13.439Z,95053.03
2018-12-17T22:05:42.175Z,95052.40
2018-12-17T22:08:10.787Z,95046.94
2018-12-17T22:10:39.424Z,95048.41
2018-12-17T22:13:08.017Z,95052.22
2018-12-17T22:15:37.336Z,95045.86
2018-12-17T22:18:05.961Z,95049.22
2018-12-17T22:20:34.705Z,95048.41
2018-12-17T22:23:03.329Z,95042.16
2018-12-17T22:25:32.062Z,95056.09
2018-12-17T22:28:00.756Z,95050.17
2018-12-17T22:30:29.432Z,95046.47
2018-12-17T22:32:58.038Z,95052.69
2018-12-17T22:35:26.596Z,95049.77
2018-12-17T22:37:55.281Z,95055.67
2018-12-17T22:40:23.966Z,95057.78
2018-12-17T22:42:52.614Z,95043.31
2018-12-17T22:45:21.273Z,95037.24
2018-12-17T22:47:49.910Z,95046.11
2018-12-17T22:50:18.529Z,95048.57
2018-12-17T22:52:47.210Z,95047.88
2018-12-17T22:55:15.809Z,95047.96
2018-12-17T22:57:44.474Z,95042.37
2018-12-17T23:00:13.447Z,95035.94
2018-12-17T23:02:42.125Z,95033.72
2018-12-17T23:05:13.598Z,95040.52
2018-12-17T23:07:42.339Z,95036.70
2018-12-17T23:10:23.010Z,95034.71
2018-12-17T23:13:03.074Z,95025.84
2018-12-17T23:15:42.729Z,95037.44
2018-12-17T23:18:10.217Z,95023.99
2018-12-17T23:20:39.172Z,95027.26
2018-12-17T23:23:07.936Z,95044.18
2018-12-17T23:25:36.622Z,95042.22
2018-12-17T23:28:05.465Z,95039.59
2018-12-17T23:30:34.135Z,95029.13
2018-12-17T23:33:02.741Z,95025.41
2018-12-17T23:35:31.438Z,95029.14
2018-12-17T23:38:00.165Z,95028.12
2018-12-17T23:40:28.845Z,95029.86
2018-12-17T23:42:57.529Z,95030.52
2018-12-17T23:45:26.180Z,95030.03
2018-12-17T23:47:54.888Z,95016.75
2018-12-17T23:50:23.487Z,95020.72
2018-12-17T23:52:52.122Z,95017.23
2018-12-17T23:55:21.281Z,95021.28
2018-12-17T23:57:49.941Z,95020.99
